Bezig met laden...

Meteo / TAF / Notam

België
  • EBAW - ANTWERPEN / DEURNE
    EBAW 271420Z 09004KT 6000 FEW008 08/06 Q1018 NOSIG
    TAF EBAW 271110Z 2712/2721 09003KT 5000 BR BKN006 BECMG 2712/2714 9999 NSW
  • EBBE - BEAUVECHAIN
    EBBE 271319Z AUTO 04005KT 3500 BR BKN090/// 07/06 Q1018 YLO
  • EBBL - KLEINE-BROGEL
    EBBL 271413Z AUTO 07003KT 9000 OVC093/// 08/06 Q1018 BLU
  • EBBR - BRUSSELS / BRUSSELS-NATIONAL
    EBBR 271420Z 09003KT 3500 BR BKN006 07/06 Q1018 TEMPO 2500 BR
    TAF AMD EBBR 271412Z 2712/2818 09003KT 6000 BKN006 TEMPO 2712/2718 3000 BR TEMPO 2800/2805 2500 BR
  • EBCI - CHARLEROI / BRUSSELS SOUTH
    EBCI 271420Z 07005KT 7000 NSC 07/05 Q1017 NOSIG
    TAF EBCI 271110Z 2712/2818 09004KT CAVOK PROB30 TEMPO 2800/2805 4500 BR
  • EBCV - CHIÈVRES
    EBCV 271255Z AUTO 07004KT //// SCT094/// 07/06 Q1018 BLU
    TAF EBCV 270841Z 2710/2719 15003KT 2000 BR BKN007 BECMG 2710/2712 5000 BR SCT010 BECMG 2714/2716 8000 NSW FEW012 BY EBWM
  • EBDT - DIEST / SCHAFFEN
    EBDT 271255Z AUTO VRB02KT 0100 FG OVC002/// 06/06 Q1019 RED
  • EBFN - KOKSIJDE
    EBFN 271324Z AUTO 09005KT 4700 BR OVC007/// 09/08 Q1018 GRN
    TAF EBFN 270841Z 2710/2719 09006KT 6000 SCT020 BKN040 TEMPO 2710/2719 4000 -DZ BR BKN007 OVC015 TEMPO 2710/2719 8000 SCT040
  • EBFS - FLORENNES
    EBFS 271255Z AUTO 09004KT 9999 BKN080/// 06/04 Q1017 BLU
  • EBLB - ELSENBORN
    EBLB 271255Z AUTO 16003KT 9999 NCD 10/04 Q1018 BLU
  • EBLG - LIÈGE / LIÈGE
    EBLG 271420Z 09003KT 040V150 CAVOK 09/06 Q1018 NOSIG
    TAF EBLG 271110Z 2712/2818 12003KT CAVOK PROB30 TEMPO 2800/2805 4500 BR
  • EBOS - OOSTENDE-BRUGGE / OOSTENDE
    EBOS 271420Z 08006KT 5000 BR BKN009 09/07 Q1018 TEMPO 3500 BR SCT009
    TAF EBOS 271110Z 2712/2818 09006KT 6000 SCT006 PROB40 2712/2720 2500 BR BKN004 PROB30 TEMPO 2801/2809 2500 BR
Nederland
  • EHAK - A12-CPP HELIPAD OIL 2011
    EHAK 271355Z AUTO 15010KT 090V190 9999 NSC 09/03 Q1020
  • EHAM - AMSTERDAM AIRPORT SCHIPHOL
    EHAM 271425Z 09005KT 9000 FEW006 BKN007 OVC009 07/06 Q1019 BECMG 7000
    TAF EHAM 271114Z 2712/2818 09006KT 9999 BKN008 PROB30 TEMPO 2712/2717 4000 -DZ BR BKN004 BECMG 2717/2720 7000 NSC BECMG 2720/2723 4000 BR MIFG BECMG 2723/2801 2000 BCFG PROB40 2800/2810 0600 FG BKN002 BECMG 2809/2811 4000 BR BECMG 2811/2813 8000 NSW
  • EHBK - MAASTRICHT AACHEN AIRPORT
    EHBK 271425Z AUTO 05007KT 9999 NSC 08/05 Q1018 NOSIG
    TAF EHBK 271114Z 2712/2818 12005KT CAVOK PROB40 2801/2809 4000 BR
  • EHDL - DEELEN AIR BASE
    EHDL 271425Z AUTO 15003KT 130V220 5000 BR SCT120 07/06 Q1019 WHT
    TAF EHDL 270954Z 2710/2722 08003KT 4000 BR BKN005 TEMPO 2710/2713 2000 DZRA BR SCT002 BKN004 PROB30 TEMPO 2710/2712 0800 FG BKN001 BECMG 2711/2714 12005KT 8000 FEW008 SCT020 BKN035 BECMG 2718/2720 4000 BR PROB40 2720/2722 2000 BR MIFG
  • EHDV - D15-FA-1 SEA
    EHDV 271355Z AUTO 16010KT 8000 FEW023/// 09/03 Q1019
  • EHEH - EINDHOVEN AIRPORT
    EHEH 271355Z AUTO 13003KT 100V180 9000 BR BKN092 07/05 Q1018 BLU NOSIG
    TAF EHEH 271113Z 2712/2818 11004KT 9000 SCT030 BKN045 PROB30 TEMPO 2712/2714 5000 BR SCT008 BECMG 2717/2720 4000 BR BECMG 2720/2722 2500 BR MIFG PROB40 2723/2806 0800 FG BECMG 2806/2809 3000 BR BECMG 2808/2810 06007KT CAVOK
  • EHFD - F-3 PLATFORM
    EHFD 271355Z AUTO /////KT 9999 // NCD 10/03 Q1020 RE//
  • EHFS - VLISSINGEN
    EHFS 271355Z AUTO 08006KT 050V110 4300 BR OVC006/// 09/07 Q1018
  • EHGG - GRONINGEN AIRPORT EELDE
    EHGG 271425Z AUTO 11006KT 070V150 2700 BR OVC002 08/07 Q1019 NOSIG
    TAF EHGG 271126Z 2712/2818 11006KT 7000 BKN006 PROB40 TEMPO 2712/2718 4000 BR -DZ BKN003 BECMG 2717/2720 3000 BR MIFG NSC BECMG 2720/2723 1500 BCFG PROB40 2720/2812 2000 OVC003 BECMG 2800/2803 0600 FG VV001 BECMG 2809/2812 4000 BR BKN007
  • EHGR - GILZE-RIJEN AIR BASE
    EHGR 271425Z AUTO VRB02KT 6000 BR SCT007 BKN088 OVC094 07/06 Q1018 GRN
    TAF EHGR 270934Z 2710/2722 08004KT 5000 BR BKN015 TEMPO 2710/2717 3500 -DZ BR BKN006 PROB40 TEMPO 2710/2715 2000 DZRA BR SCT003 OVC005 BECMG 2714/2717 SCT020 BECMG 2718/2720 4000 BR BECMG 2720/2722 2500 BR MIFG
  • EHJA - J6-A SEA, NETHERLANDS
    EHJA 271355Z AUTO 13008KT 9999 FEW023/// 09/04 Q1018
  • EHJR - K13-A PLATFORM
    EHJR 271355Z AUTO 00000KT //// // ///////// 09/04 Q1019 RE// W///H6
  • EHKD - DEN HELDER AIRPORT
    EHKD 271355Z AUTO 09006KT 9999 OVC010 08/05 Q1019 GRN BECMG BKN006
    TAF EHKD 271337Z 2714/2802 08005KT 9000 SCT010 BKN012 TEMPO 2714/2721 4000 -DZRA SCT005 BKN008 PROB40 TEMPO 2715/2718 2000 DZRA BR SCT002 BKN005 BECMG 2719/2722 4000 BR FEW008 SCT020 PROB30 TEMPO 2719/2802 BKN004 BECMG 2722/2724 2000 BR MIFG PROB40 2800/2
  • EHKV - K14-FA-1C PLATFORM
    EHKV 271355Z AUTO 16008KT 9999 FEW019 SCT027 BKN034 10/05 Q1019
  • EHLE - LELYSTAD AIRPORT
    EHLE 271425Z AUTO 13005KT 3900 BR BKN003 OVC005 08/07 Q1019 TEMPO BKN005
    TAF EHLE 271114Z 2712/2818 09006KT 9999 BKN008 PROB30 TEMPO 2712/2716 4000 -DZ BR BKN004 BECMG 2716/2719 7000 NSC BECMG 2719/2722 4000 BR MIFG BECMG 2722/2724 2000 BCFG PROB40 2723/2810 0600 FG BKN002 BECMG 2809/2811 4000 BR BECMG 2811/2813 8000 NSW PROB3
  • EHLW - LEEUWARDEN AIR BASE
    EHLW 271425Z AUTO 09005KT 020V140 9999 OVC008 08/06 Q1019 GRN
    TAF EHLW 270916Z 2710/2722 10005KT 2500 BR MIFG NSC PROB40 TEMPO 2710/2711 VRB02KT 0800 FG BECMG 2712/2714 BKN008 TEMPO 2712/2718 3500 -DZRA SCT004 BKN006 PROB30 TEMPO 2713/2718 2000 DZRA SCT002 BKN004 BECMG 2719/2721 FEW008 SCT020 PROB40 2720/2722 3000 B
  • EHMA - AWG-1 PLATFORM
    EHMA 271355Z AUTO 11009KT 060V150 9999 BKN018 OVC023 09/06 Q1020
  • EHMG - L9-FF-1 PLATFORM
    EHMG 271355Z AUTO 13010KT 9999 FEW017 09/04 Q1020
  • EHPG - P11-B SEA, NETHERLANDS
    EHPG 271355Z AUTO 08006KT 9999 FEW015 SCT022 BKN025 09/05 Q1018
  • EHQE - HOORN-A SEA, NETHERLANDS
    EHQE 271355Z AUTO 08008KT 9999 SCT014 BKN042 09/05 Q1019
  • EHRD - ROTTERDAM THE HAGUE AIRPORT
    EHRD 271425Z AUTO 10006KT 5000 BR BKN005 OVC006 08/07 Q1018 TEMPO 4000 BR BKN004
    TAF EHRD 271114Z 2712/2818 09006KT 9999 BKN008 PROB30 TEMPO 2712/2717 4000 -DZ BR BKN004 BECMG 2717/2720 7000 NSC BECMG 2720/2723 4000 BR MIFG BECMG 2723/2801 2000 BCFG PROB40 2800/2810 0600 FG BKN002 BECMG 2809/2811 4000 BR BECMG 2811/2813 8000 NSW
  • EHSA - EURO PLATFORM
    EHSA 271355Z AUTO 07007KT 9999 ///////// 09/06 Q1018 W10/H4
  • EHSC - LICHTEILAND GOEREE
    EHSC 271355Z AUTO 10006KT 9000 ///////// 09/07 Q1018 W11/H4
  • EHVK - VOLKEL AIR BASE
    EHVK 271425Z AUTO 07007KT 9000 BR NCD 06/04 Q1019 BLU
    TAF EHVK 271324Z 2714/2802 11004KT 8000 NSC BECMG 2717/2720 4000 BR BECMG 2720/2722 2500 BR MIFG PROB40 2723/2802 0800 FG
  • EHVL - VLIELAND HELIPORT
    EHVL 271425Z AUTO 07005KT 9999 OVC012 08/05 Q1019 GRN
  • EHWO - WOENSDRECHT AIR BASE
    EHWO 271425Z AUTO 10005KT 060V150 5000 BR SCT006 OVC009 08/07 Q1018 YLO
    TAF EHWO 270939Z 2710/2722 08004KT 4500 BR BKN012 TEMPO 2710/2717 3500 -DZ BR BKN006 PROB40 TEMPO 2710/2715 2000 DZRA BR SCT003 OVC005 BECMG 2715/2718 SCT020 BECMG 2718/2720 4000 BR BECMG 2720/2722 2500 BR MIFG
Luxemburg
  • ELLX - LUXEMBOURG FINDEL AIRPORT
    ELLX 271420Z 06008KT 4000 R06/P2000N BR FEW000 04/02 Q1018 TEMPO 1200 PRFG
    TAF ELLX 271100Z 2712/2818 10006KT 9000 NSC TEMPO 2718/2810 VRB02KT 3500 BR PROB40 TEMPO 2721/2802 0500 FG OVC004 PROB40 TEMPO 2802/2809 0200 FZFG OVC002

Buienradar



Weerbericht - Voorspelling